Time;durP1;ratioP1;P1;durP2;ratioP2;P2;SDS_P1;SDS_P2;PMS_P1;PMS_P2;Temp;Humidity;BMP_temperature;BMP_pressure;BME280_temperature;BME280_humidity;BME280_pressure;Samples;Min_cycle;Max_cycle;Signal;HPM_P1;HPM_P2
2022/12/25 00:01:11;;;;;;;10.47;7.90;;;7.70;99.90;;;;;;6275197;28;20479;-59
2022/12/25 00:04:14;;;;;;;8.27;7.37;;;7.70;99.90;;;;;;6275508;28;20482;-60
2022/12/25 00:07:19;;;;;;;9.43;7.83;;;7.70;99.90;;;;;;6275406;28;20474;-59
2022/12/25 00:10:22;;;;;;;21.87;15.40;;;7.70;99.90;;;;;;6275016;28;20802;-59
2022/12/25 00:13:26;;;;;;;20.90;18.17;;;7.70;99.90;;;;;;6275164;28;20761;-59
2022/12/25 00:16:29;;;;;;;26.40;22.50;;;7.70;99.90;;;;;;6275323;28;20470;-59
2022/12/25 00:19:32;;;;;;;22.57;20.20;;;7.50;99.90;;;;;;6274828;28;20485;-59
2022/12/25 00:22:37;;;;;;;21.33;18.90;;;7.40;99.90;;;;;;6275060;28;20474;-59
2022/12/25 00:25:40;;;;;;;21.97;19.60;;;7.40;99.90;;;;;;6275190;28;20484;-59
2022/12/25 00:28:44;;;;;;;20.17;17.57;;;7.40;99.90;;;;;;6277613;28;20473;-59
2022/12/25 00:31:47;;;;;;;22.73;19.40;;;7.30;99.90;;;;;;6282833;28;20481;-59
2022/12/25 00:34:50;;;;;;;23.33;19.67;;;7.30;99.90;;;;;;6282368;28;20465;-59
2022/12/25 00:37:55;;;;;;;20.77;17.93;;;7.20;99.90;;;;;;6281362;28;20470;-59
2022/12/25 00:40:58;;;;;;;25.20;18.63;;;7.20;99.90;;;;;;6275076;28;20786;-60
2022/12/25 00:44:01;;;;;;;20.53;17.13;;;7.20;99.90;;;;;;6275357;28;20473;-60
2022/12/25 00:47:04;;;;;;;23.27;19.50;;;7.20;99.90;;;;;;6274800;28;20502;-60
2022/12/25 00:50:09;;;;;;;23.00;17.73;;;7.10;99.90;;;;;;6275145;28;20532;-60
2022/12/25 00:53:13;;;;;;;20.43;18.20;;;7.10;99.90;;;;;;6274830;28;20477;-60
2022/12/25 00:56:17;;;;;;;21.47;18.73;;;7.10;99.90;;;;;;6274998;28;20481;-60
2022/12/25 00:59:21;;;;;;;21.90;18.07;;;7.10;99.90;;;;;;6274396;28;20474;-62
2022/12/25 01:02:24;;;;;;;20.93;18.50;;;7.10;99.90;;;;;;6275954;28;20474;-64
2022/12/25 01:05:28;;;;;;;24.07;19.93;;;7.10;99.90;;;;;;6266045;28;20480;-63
2022/12/25 01:08:35;;;;;;;24.60;18.07;;;7.10;99.90;;;;;;6279431;28;20485;-62
2022/12/25 01:11:37;;;;;;;20.60;16.03;;;7.10;99.90;;;;;;6279477;28;20482;-62
2022/12/25 01:14:40;;;;;;;17.80;15.97;;;7.10;99.90;;;;;;6279846;28;20469;-63
2022/12/25 01:17:44;;;;;;;21.10;16.87;;;7.20;99.90;;;;;;6278854;28;20481;-63
2022/12/25 01:20:47;;;;;;;19.80;17.00;;;7.20;99.90;;;;;;6278864;28;20474;-63
2022/12/25 01:23:53;;;;;;;20.57;18.30;;;7.20;99.90;;;;;;6279233;28;20474;-63
2022/12/25 01:26:57;;;;;;;26.37;18.20;;;7.30;99.90;;;;;;6279050;28;20470;-63
2022/12/25 01:30:00;;;;;;;19.63;17.53;;;7.20;99.90;;;;;;6278831;28;20942;-62
2022/12/25 01:33:03;;;;;;;21.77;18.67;;;7.20;99.90;;;;;;6278709;28;20794;-63
2022/12/25 01:36:14;;;;;;;21.60;19.30;;;7.20;99.90;;;;;;6278875;28;20803;-63
2022/12/25 01:39:19;;;;;;;21.20;17.60;;;7.30;99.90;;;;;;6278947;28;20500;-63
2022/12/25 01:42:23;;;;;;;15.80;14.00;;;7.40;99.90;;;;;;6278752;28;20480;-62
2022/12/25 01:45:34;;;;;;;14.47;11.83;;;7.40;99.90;;;;;;6278651;28;20485;-63
2022/12/25 01:48:39;;;;;;;13.10;11.70;;;7.40;99.90;;;;;;6278405;28;20970;-62
2022/12/25 01:51:45;;;;;;;12.47;11.20;;;7.40;99.90;;;;;;6278489;28;20916;-63
2022/12/25 01:54:54;;;;;;;14.23;9.83;;;7.50;99.90;;;;;;6278318;28;20779;-63
2022/12/25 01:57:57;;;;;;;11.47;8.97;;;7.50;99.90;;;;;;6278290;28;20485;-63
2022/12/25 02:01:00;;;;;;;10.97;9.67;;;7.50;99.90;;;;;;6278241;28;20466;-63
2022/12/25 02:04:08;;;;;;;11.70;10.40;;;7.50;99.90;;;;;;6278385;28;20466;-64
2022/12/25 02:07:15;;;;;;;17.50;13.67;;;7.50;99.90;;;;;;6269531;28;20474;-64
2022/12/25 02:10:20;;;;;;;12.20;10.47;;;7.50;99.90;;;;;;6278113;28;20473;-63
2022/12/25 02:13:24;;;;;;;12.37;9.90;;;7.50;99.90;;;;;;6277770;28;20514;-63
2022/12/25 02:16:33;;;;;;;10.43;9.40;;;7.40;99.90;;;;;;6277614;28;20481;-64
2022/12/25 02:20:32;;;;;;;11.33;9.77;;;7.40;99.90;;;;;;6278018;28;20474;-63
2022/12/25 02:24:31;;;;;;;10.23;9.03;;;7.50;99.90;;;;;;6277644;28;21320;-62
2022/12/25 02:28:02;;;;;;;10.50;7.90;;;7.50;99.90;;;;;;6233727;28;20473;-63
2022/12/25 02:31:10;;;;;;;9.60;7.97;;;7.60;99.90;;;;;;6277384;28;20789;-63
2022/12/25 02:34:18;;;;;;;11.90;10.00;;;7.60;99.90;;;;;;6278046;28;20461;-63
2022/12/25 02:37:30;;;;;;;20.50;15.40;;;7.60;99.90;;;;;;6277120;28;20473;-63
2022/12/25 02:40:39;;;;;;;25.47;18.30;;;7.50;99.90;;;;;;6277594;28;20481;-63
2022/12/25 03:07:30;;;;;;;17.50;14.77;;;7.30;99.90;;;;;;6301422;28;20470;-63
2022/12/25 03:17:20;;;;;;;21.43;15.80;;;7.30;99.90;;;;;;6299799;28;20767;-63
2022/12/25 03:27:09;;;;;;;20.13;16.50;;;7.20;99.90;;;;;;6275755;28;20478;-63
2022/12/25 03:35:21;;;;;;;19.87;16.37;;;7.10;99.90;;;;;;6275847;28;20912;-64
2022/12/25 04:38:08;;;;;;;11.23;8.30;;;6.70;99.90;;;;;;6299773;28;20470;-63
2022/12/25 04:41:14;;;;;;;8.93;7.87;;;6.70;99.90;;;;;;6299583;28;20484;-63
2022/12/25 04:44:17;;;;;;;8.47;6.67;;;6.70;99.90;;;;;;6300429;28;20478;-63
2022/12/25 04:47:20;;;;;;;7.60;6.33;;;6.70;99.90;;;;;;6300231;28;20480;-64
2022/12/25 04:50:23;;;;;;;18.37;10.40;;;6.70;99.90;;;;;;6299847;28;20928;-63
2022/12/25 04:53:26;;;;;;;15.43;9.87;;;6.60;99.90;;;;;;6299377;28;20469;-63
2022/12/25 04:56:31;;;;;;;11.93;8.77;;;6.60;99.90;;;;;;6299911;28;20465;-62
2022/12/25 04:59:34;;;;;;;11.97;8.70;;;6.60;99.90;;;;;;6299532;28;20485;-63
2022/12/25 05:02:37;;;;;;;9.47;6.80;;;6.60;99.90;;;;;;6301310;28;20476;-62
2022/12/25 05:05:41;;;;;;;7.53;5.77;;;6.70;99.90;;;;;;6299931;28;20480;-62
2022/12/25 05:08:44;;;;;;;7.83;5.87;;;6.60;99.90;;;;;;6301147;28;20965;-62
2022/12/25 05:11:48;;;;;;;6.90;4.73;;;6.60;99.90;;;;;;6301212;28;20473;-63
2022/12/25 05:14:52;;;;;;;7.07;4.80;;;6.50;99.90;;;;;;6300062;28;20466;-62
2022/12/25 05:17:55;;;;;;;6.07;5.20;;;6.40;99.90;;;;;;6294896;28;20538;-62
2022/12/25 05:20:58;;;;;;;7.03;4.80;;;6.40;99.90;;;;;;6299438;28;20481;-63
2022/12/25 05:24:01;;;;;;;9.50;4.80;;;6.30;99.90;;;;;;6299155;28;20465;-63
2022/12/25 05:27:06;;;;;;;7.47;5.33;;;6.20;99.90;;;;;;6300270;28;20484;-63
2022/12/25 05:30:10;;;;;;;8.00;4.50;;;6.20;99.90;;;;;;6299799;28;20461;-62
2022/12/25 05:33:13;;;;;;;8.70;5.20;;;6.20;99.90;;;;;;6299529;28;20480;-63
2022/12/25 05:36:16;;;;;;;6.03;4.67;;;6.20;99.90;;;;;;6299650;28;20473;-63
2022/12/25 05:39:20;;;;;;;6.10;4.27;;;6.10;99.90;;;;;;6299012;28;20830;-62
2022/12/25 05:42:24;;;;;;;7.60;6.13;;;6.10;99.90;;;;;;6299551;28;20489;-62
2022/12/25 05:45:27;;;;;;;7.23;5.20;;;6.00;99.90;;;;;;6299215;28;20510;-63
2022/12/25 05:48:31;;;;;;;5.17;4.63;;;6.00;99.90;;;;;;6298778;28;20457;-62
2022/12/25 05:51:34;;;;;;;7.03;4.53;;;5.90;99.90;;;;;;6303199;28;20457;-63
2022/12/25 05:54:37;;;;;;;4.23;3.83;;;5.90;99.90;;;;;;6302547;28;20460;-63
2022/12/25 05:57:42;;;;;;;6.43;5.37;;;5.90;99.90;;;;;;6302615;28;20789;-63
2022/12/25 06:00:45;;;;;;;7.33;4.93;;;5.80;99.90;;;;;;6302646;28;20488;-63
2022/12/25 06:03:48;;;;;;;9.43;5.53;;;5.70;99.90;;;;;;6302287;28;20888;-62
2022/12/25 06:06:51;;;;;;;5.70;4.13;;;5.70;99.90;;;;;;6302450;28;20905;-63
2022/12/25 06:09:54;;;;;;;6.87;4.30;;;5.70;99.90;;;;;;6302357;28;20469;-63
2022/12/25 06:12:59;;;;;;;4.67;4.23;;;5.70;99.90;;;;;;6303312;28;20469;-62
2022/12/25 06:16:04;;;;;;;6.47;4.80;;;5.70;99.90;;;;;;6303271;28;20791;-64
2022/12/25 06:19:08;;;;;;;4.00;3.53;;;5.80;99.90;;;;;;6294659;28;20556;-63
2022/12/25 06:22:11;;;;;;;5.33;4.37;;;5.70;99.90;;;;;;6305478;28;20903;-63
2022/12/25 06:25:14;;;;;;;5.63;4.20;;;5.70;99.90;;;;;;6304652;28;20469;-64
2022/12/25 06:28:18;;;;;;;5.00;3.53;;;5.70;99.90;;;;;;6303680;28;20480;-64
2022/12/25 06:31:23;;;;;;;5.77;4.13;;;5.60;99.90;;;;;;6305953;28;21021;-63
2022/12/25 06:34:27;;;;;;;5.60;4.80;;;5.60;99.90;;;;;;6303388;28;20470;-63
2022/12/25 06:37:31;;;;;;;5.00;4.53;;;5.60;99.90;;;;;;6302400;28;20474;-63
2022/12/25 06:40:34;;;;;;;4.07;3.40;;;5.50;99.90;;;;;;6302385;28;20477;-63
2022/12/25 06:43:39;;;;;;;7.07;5.40;;;5.50;99.90;;;;;;6302589;28;20827;-63
2022/12/25 06:46:42;;;;;;;4.77;4.27;;;5.60;99.90;;;;;;6302527;28;20473;-63
2022/12/25 06:49:45;;;;;;;4.47;4.07;;;5.50;99.90;;;;;;6303018;28;20474;-62
2022/12/25 06:52:48;;;;;;;9.00;4.47;;;5.50;99.90;;;;;;6303569;28;20488;-63
2022/12/25 06:55:51;;;;;;;4.97;4.50;;;5.60;99.90;;;;;;6302769;28;20484;-63
2022/12/25 06:58:57;;;;;;;6.00;4.03;;;5.70;99.90;;;;;;6302344;28;20483;-63
2022/12/25 07:02:01;;;;;;;4.87;3.90;;;5.70;99.90;;;;;;6301414;28;20527;-62
2022/12/25 07:05:05;;;;;;;6.77;4.97;;;5.80;99.90;;;;;;6301565;28;20991;-63
2022/12/25 07:08:08;;;;;;;4.70;4.03;;;5.80;99.90;;;;;;6301939;28;20469;-62
2022/12/25 07:11:12;;;;;;;4.40;4.00;;;5.90;99.90;;;;;;6301338;28;20477;-62
2022/12/25 07:14:19;;;;;;;4.70;4.30;;;5.90;99.90;;;;;;6301324;28;20580;-62
2022/12/25 07:17:26;;;;;;;5.33;4.87;;;6.00;99.90;;;;;;6300996;28;20474;-62
2022/12/25 07:20:29;;;;;;;4.23;3.73;;;6.00;99.90;;;;;;6301588;28;20465;-63
2022/12/25 07:23:32;;;;;;;6.17;4.67;;;6.00;99.90;;;;;;6296743;28;20481;-62
2022/12/25 07:26:36;;;;;;;5.80;4.30;;;6.10;99.90;;;;;;6300937;28;20487;-62
2022/12/25 07:29:40;;;;;;;5.20;4.03;;;6.20;99.90;;;;;;6301061;28;20488;-62
2022/12/25 07:32:43;;;;;;;7.60;4.17;;;6.20;99.90;;;;;;6301094;28;20466;-62
2022/12/25 07:35:52;;;;;;;6.07;4.40;;;6.30;99.90;;;;;;6300861;28;21002;-63
2022/12/25 07:38:55;;;;;;;4.27;3.90;;;6.50;99.90;;;;;;6300375;28;20484;-62
2022/12/25 07:41:58;;;;;;;5.73;5.13;;;6.60;99.90;;;;;;6300828;28;20823;-62
2022/12/25 07:45:05;;;;;;;6.80;5.10;;;6.60;99.90;;;;;;6301510;28;20538;-62
2022/12/25 07:48:08;;;;;;;11.33;4.77;;;6.60;99.90;;;;;;6302159;28;20477;-63
2022/12/25 07:51:18;;;;;;;5.73;5.20;;;6.60;99.90;;;;;;6300861;28;20465;-62
2022/12/25 07:54:21;;;;;;;6.03;5.40;;;6.70;99.90;;;;;;6300471;28;20488;-62
2022/12/25 07:57:24;;;;;;;7.80;5.10;;;6.70;99.90;;;;;;6300356;28;20477;-62
2022/12/25 08:00:31;;;;;;;6.50;5.27;;;6.80;99.90;;;;;;6300370;28;20958;-62
2022/12/25 08:03:35;;;;;;;5.57;4.70;;;6.90;99.90;;;;;;6299683;28;20638;-62
2022/12/25 08:06:38;;;;;;;6.90;4.93;;;6.90;99.90;;;;;;6300369;28;20761;-62
2022/12/25 08:09:41;;;;;;;6.80;5.90;;;6.90;99.90;;;;;;6299939;28;20938;-63
2022/12/25 08:12:45;;;;;;;8.63;6.50;;;7.00;99.90;;;;;;6299584;28;20473;-63
2022/12/25 08:15:49;;;;;;;5.83;5.30;;;7.00;99.90;;;;;;6300071;28;20452;-63
2022/12/25 08:18:53;;;;;;;7.07;6.03;;;7.00;99.90;;;;;;6299690;28;20835;-64
2022/12/25 08:21:57;;;;;;;8.33;6.00;;;7.10;99.90;;;;;;6300280;28;20488;-63
2022/12/25 08:25:00;;;;;;;7.70;7.00;;;7.30;99.90;;;;;;6295419;28;20457;-63
2022/12/25 08:28:03;;;;;;;7.70;6.03;;;7.40;99.90;;;;;;6299652;28;20963;-63
2022/12/25 08:31:10;;;;;;;9.33;4.90;;;7.50;99.90;;;;;;6300106;28;20457;-63
2022/12/25 08:34:14;;;;;;;6.07;5.47;;;7.70;99.90;;;;;;6299912;28;20952;-63
2022/12/25 08:37:17;;;;;;;9.50;8.50;;;7.70;99.90;;;;;;6299817;28;20481;-63
2022/12/25 08:40:20;;;;;;;16.17;14.47;;;7.90;99.90;;;;;;6299740;28;20469;-63
2022/12/25 08:43:23;;;;;;;15.63;14.10;;;8.00;99.90;;;;;;6299625;28;20473;-63
2022/12/25 08:46:28;;;;;;;9.97;8.93;;;8.20;99.90;;;;;;6299922;28;20469;-63
2022/12/25 08:49:31;;;;;;;7.27;6.57;;;8.20;99.90;;;;;;6299674;28;20551;-63
2022/12/25 08:52:35;;;;;;;10.70;7.70;;;8.30;99.90;;;;;;6299849;28;20547;-62
2022/12/25 08:55:38;;;;;;;13.20;9.67;;;8.40;99.90;;;;;;6299273;28;20763;-63
2022/12/25 08:58:42;;;;;;;12.97;10.47;;;8.50;99.90;;;;;;6298952;28;20793;-63
2022/12/25 09:01:47;;;;;;;14.67;12.80;;;8.60;99.90;;;;;;6299568;28;20968;-62
2022/12/25 09:04:50;;;;;;;14.17;12.70;;;8.60;99.90;;;;;;6299406;28;21015;-63
2022/12/25 09:07:53;;;;;;;13.43;12.03;;;8.70;99.90;;;;;;6299397;28;20485;-63
2022/12/25 09:10:56;;;;;;;17.30;15.50;;;8.80;99.90;;;;;;6299521;28;20479;-63
2022/12/25 09:14:00;;;;;;;19.20;17.07;;;9.10;99.90;;;;;;6299457;28;20956;-63
2022/12/25 09:17:05;;;;;;;19.37;17.13;;;9.30;99.90;;;;;;6299113;28;20472;-64
2022/12/25 09:20:08;;;;;;;18.03;16.20;;;9.50;99.90;;;;;;6274499;28;20565;-63
2022/12/25 09:23:11;;;;;;;21.80;16.70;;;9.70;99.90;;;;;;6274685;28;20965;-63
2022/12/25 09:26:18;;;;;;;22.40;18.47;;;10.00;99.90;;;;;;6279482;28;20473;-63
2022/12/25 09:29:21;;;;;;;20.63;17.70;;;10.20;99.90;;;;;;6275181;28;20933;-63
2022/12/25 09:32:26;;;;;;;22.20;16.73;;;10.40;99.90;;;;;;6279043;28;20813;-63
2022/12/25 09:35:29;;;;;;;17.57;15.73;;;10.70;99.90;;;;;;6278692;28;20949;-62
2022/12/25 09:38:33;;;;;;;17.57;15.80;;;10.80;99.90;;;;;;6279038;28;20484;-63
2022/12/25 09:41:40;;;;;;;15.50;14.00;;;10.90;99.90;;;;;;6278577;28;20508;-63
2022/12/25 09:44:46;;;;;;;15.00;13.43;;;11.10;99.90;;;;;;6278795;28;20469;-63
2022/12/25 09:47:55;;;;;;;17.50;15.10;;;11.30;99.90;;;;;;6278324;28;20478;-63
2022/12/25 09:51:02;;;;;;;17.00;15.43;;;11.40;99.90;;;;;;6278995;28;20918;-63
2022/12/25 09:54:12;;;;;;;15.40;13.87;;;11.40;99.90;;;;;;6278861;28;20477;-63
2022/12/25 09:57:15;;;;;;;16.70;14.90;;;11.60;99.90;;;;;;6278348;28;20466;-63
2022/12/25 10:00:21;;;;;;;15.87;14.00;;;11.80;99.90;;;;;;6278410;28;20472;-63
2022/12/25 10:03:41;;;;;;;19.20;17.13;;;11.80;99.90;;;;;;6278465;28;20504;-63
2022/12/25 10:06:58;;;;;;;15.30;13.47;;;11.60;99.90;;;;;;6278371;28;20874;-63
2022/12/25 10:10:16;;;;;;;15.57;14.07;;;11.40;99.90;;;;;;6278242;28;20474;-63
2022/12/25 10:13:39;;;;;;;16.10;14.53;;;11.10;99.90;;;;;;6277853;28;20475;-63
2022/12/25 10:16:51;;;;;;;15.23;13.73;;;11.00;99.90;;;;;;6277947;28;20482;-63
2022/12/25 10:20:07;;;;;;;18.20;16.30;;;10.80;99.90;;;;;;6301163;28;20465;-62
2022/12/25 10:23:15;;;;;;;15.47;13.90;;;10.60;99.90;;;;;;6302547;28;20826;-63
2022/12/25 10:26:20;;;;;;;15.80;13.50;;;10.50;99.90;;;;;;6302280;28;20469;-63
2022/12/25 10:29:23;;;;;;;13.57;12.40;;;10.50;99.90;;;;;;6302608;28;20481;-62
2022/12/25 10:32:26;;;;;;;16.30;13.90;;;10.50;99.90;;;;;;6302137;28;20480;-63
2022/12/25 10:35:31;;;;;;;15.33;13.77;;;10.60;99.90;;;;;;6301756;28;20465;-63
2022/12/25 10:38:35;;;;;;;16.30;13.63;;;10.60;99.90;;;;;;6302436;28;20515;-63
2022/12/25 10:41:56;;;;;;;16.10;14.40;;;10.70;99.90;;;;;;6302691;28;20477;-62
2022/12/25 10:45:01;;;;;;;15.60;13.00;;;10.80;99.90;;;;;;6302295;28;20805;-63
2022/12/25 10:48:05;;;;;;;13.43;12.13;;;10.80;99.90;;;;;;6301929;28;20474;-63
2022/12/25 10:51:11;;;;;;;16.00;13.80;;;10.90;99.90;;;;;;6302309;28;20480;-63
2022/12/25 10:54:23;;;;;;;15.20;13.70;;;10.90;99.90;;;;;;6301945;28;20469;-63
2022/12/25 10:57:28;;;;;;;14.10;12.23;;;11.00;99.90;;;;;;6302085;28;20777;-63
2022/12/25 11:00:32;;;;;;;17.40;13.87;;;11.20;99.90;;;;;;6302060;28;20473;-63
2022/12/25 11:03:38;;;;;;;15.00;13.47;;;11.20;99.90;;;;;;6301803;28;20564;-63
2022/12/25 11:06:43;;;;;;;15.07;13.50;;;11.40;99.90;;;;;;6301929;28;20447;-62
2022/12/25 11:09:50;;;;;;;15.90;13.63;;;11.60;99.90;;;;;;6301668;28;20437;-63
2022/12/25 11:12:54;;;;;;;15.93;14.17;;;11.80;99.90;;;;;;6301850;28;20476;-63
2022/12/25 11:16:08;;;;;;;20.53;16.00;;;12.10;99.70;;;;;;6301480;28;20464;-63
2022/12/25 11:19:26;;;;;;;17.13;15.23;;;12.80;99.50;;;;;;6301340;28;21009;-64
2022/12/25 11:22:31;;;;;;;14.13;12.73;;;14.80;97.90;;;;;;6301539;28;20466;-64
2022/12/25 11:25:34;;;;;;;19.20;14.60;;;16.40;93.50;;;;;;6301131;28;20473;-63
2022/12/25 11:28:40;;;;;;;14.50;13.00;;;16.40;91.30;;;;;;6301102;28;20473;-64
2022/12/25 11:31:43;;;;;;;15.50;14.10;;;16.00;91.00;;;;;;6301163;28;20465;-64
2022/12/25 11:34:48;;;;;;;15.77;13.20;;;15.90;91.70;;;;;;6300777;28;20786;-63
2022/12/25 11:37:53;;;;;;;14.93;12.47;;;19.10;87.20;;;;;;6292228;28;20465;-64
2022/12/25 11:41:00;;;;;;;13.33;12.03;;;23.20;69.40;;;;;;6301132;28;20234;-64
2022/12/25 11:44:07;;;;;;;13.40;12.10;;;26.00;52.80;;;;;;6300965;28;20275;-64
2022/12/25 11:47:20;;;;;;;15.27;13.87;;;28.60;43.10;;;;;;6300761;28;20244;-64
2022/12/25 11:50:28;;;;;;;12.23;11.23;;;31.00;36.80;;;;;;6301245;28;20234;-64
2022/12/25 11:53:38;;;;;;;12.63;11.53;;;32.70;31.30;;;;;;6300392;28;20222;-64
2022/12/25 11:56:42;;;;;;;13.25;12.15;;;33.50;29.00;;;;;;6300468;28;20312;-64
2022/12/25 11:59:52;;;;;;;13.60;12.43;;;34.20;27.60;;;;;;6300695;28;20230;-64
2022/12/25 12:03:01;;;;;;;12.20;10.95;;;33.50;27.10;;;;;;6300374;28;20287;-65
2022/12/25 12:06:08;;;;;;;10.27;9.27;;;30.90;28.20;;;;;;6300918;28;20626;-64
2022/12/25 12:09:24;;;;;;;10.07;9.27;;;28.80;30.40;;;;;;6300021;28;20717;-63
2022/12/25 12:12:35;;;;;;;13.27;11.97;;;28.90;31.30;;;;;;6300441;28;20245;-63
2022/12/25 12:15:43;;;;;;;14.43;11.80;;;30.20;30.10;;;;;;6300461;28;20363;-63
2022/12/25 12:18:48;;;;;;;12.47;11.23;;;31.00;28.80;;;;;;6299930;28;20651;-64
2022/12/25 12:21:55;;;;;;;10.50;9.60;;;31.10;28.70;;;;;;6300325;28;20217;-63
2022/12/25 12:25:04;;;;;;;10.63;9.60;;;29.20;29.50;;;;;;6299986;28;20241;-63
2022/12/25 12:28:20;;;;;;;10.90;9.90;;;26.60;32.70;;;;;;6300529;28;20226;-63
2022/12/25 12:31:25;;;;;;;9.83;9.00;;;26.30;34.40;;;;;;6299986;28;20223;-63
2022/12/25 12:34:32;;;;;;;10.20;9.30;;;27.10;33.90;;;;;;6300421;28;20238;-63
2022/12/25 12:37:37;;;;;;;10.17;9.27;;;28.80;32.10;;;;;;6299852;28;20245;-63
2022/12/25 12:40:45;;;;;;;11.77;10.73;;;30.90;30.00;;;;;;6295287;28;20654;-63
2022/12/25 12:43:54;;;;;;;12.37;10.93;;;32.30;28.50;;;;;;6299892;28;20241;-63
2022/12/25 12:46:57;;;;;;;10.63;9.60;;;32.90;27.30;;;;;;6300137;28;20546;-64
2022/12/25 12:50:02;;;;;;;11.45;10.50;;;32.80;27.00;;;;;;6299544;28;20237;-64
2022/12/25 12:53:28;;;;;;;12.93;11.63;;;32.90;27.00;;;;;;6300342;28;20237;-64
2022/12/25 12:56:33;;;;;;;12.73;11.53;;;32.10;27.00;;;;;;6299980;28;20284;-64
2022/12/25 12:59:42;;;;;;;14.83;11.63;;;31.30;28.00;;;;;;6303366;28;20264;-64
2022/12/25 13:03:16;;;;;;;12.13;10.93;;;31.10;28.20;;;;;;6306799;28;20293;-64
2022/12/25 13:06:27;;;;;;;12.00;11.00;;;30.60;28.40;;;;;;6306633;28;20666;-64
2022/12/25 13:09:40;;;;;;;12.17;11.07;;;28.50;30.40;;;;;;6306910;28;20230;-64
2022/12/25 13:12:45;;;;;;;11.10;10.10;;;26.40;33.50;;;;;;6306004;28;20254;-64
2022/12/25 13:15:50;;;;;;;11.80;10.70;;;23.90;37.10;;;;;;6306194;28;20485;-63
2022/12/25 13:18:56;;;;;;;10.97;9.97;;;22.60;39.70;;;;;;6304782;28;20250;-63
2022/12/25 13:22:01;;;;;;;11.83;10.20;;;22.50;40.70;;;;;;6305386;28;20222;-64
2022/12/25 13:25:14;;;;;;;11.53;10.50;;;22.20;41.30;;;;;;6305912;28;20227;-64
2022/12/25 13:28:24;;;;;;;12.77;9.30;;;21.50;42.40;;;;;;6313006;28;20235;-64
2022/12/25 13:31:29;;;;;;;10.83;9.70;;;21.00;43.70;;;;;;6306640;28;20252;-64
2022/12/25 13:34:36;;;;;;;10.30;9.17;;;20.30;45.20;;;;;;6308723;28;20231;-64
2022/12/25 13:37:39;;;;;;;9.40;8.60;;;20.10;45.80;;;;;;6304605;28;20242;-64
2022/12/25 13:42:04;;;;;;;10.27;9.37;;;20.00;46.90;;;;;;6304269;28;20237;-63
2022/12/25 13:44:19;;;;;;;9.57;8.57;;;20.50;46.30;;;;;;6303705;28;20692;-63
2022/12/25 13:47:25;;;;;;;10.00;9.10;;;20.70;45.90;;;;;;6299288;28;20234;-62
2022/12/25 13:50:30;;;;;;;11.30;10.30;;;21.00;45.40;;;;;;6304916;28;20677;-63
2022/12/25 13:53:35;;;;;;;10.57;9.50;;;21.30;44.90;;;;;;6304224;28;20234;-62
2022/12/25 13:56:45;;;;;;;10.70;9.60;;;21.00;45.00;;;;;;6304148;28;20234;-63
2022/12/25 13:59:49;;;;;;;9.63;8.73;;;20.50;45.40;;;;;;6304300;28;20222;-63
2022/12/25 14:02:53;;;;;;;8.83;7.90;;;19.80;46.90;;;;;;6303827;28;20320;-64
2022/12/25 14:05:58;;;;;;;9.57;7.97;;;19.30;48.10;;;;;;6303227;28;20235;-63
2022/12/25 14:09:02;;;;;;;9.17;8.37;;;18.70;49.40;;;;;;6303565;28;20242;-63
2022/12/25 14:12:06;;;;;;;9.77;6.90;;;17.90;50.90;;;;;;6301516;28;20489;-63
2022/12/25 14:15:16;;;;;;;8.60;7.40;;;17.10;52.80;;;;;;6303523;28;20810;-63
2022/12/25 14:18:22;;;;;;;8.47;7.67;;;16.60;54.60;;;;;;6303333;28;20481;-63
2022/12/25 14:21:31;;;;;;;7.40;6.57;;;16.20;55.80;;;;;;6303385;28;20474;-63
2022/12/25 14:24:34;;;;;;;8.73;7.60;;;15.80;57.00;;;;;;6302974;28;20808;-62
2022/12/25 14:27:38;;;;;;;7.93;7.13;;;15.20;58.70;;;;;;6303164;28;20457;-67
2022/12/25 14:30:43;;;;;;;9.57;7.50;;;15.00;60.40;;;;;;6302884;28;20461;-63
2022/12/25 14:33:47;;;;;;;10.07;6.57;;;14.70;61.80;;;;;;6302685;28;20467;-63
2022/12/25 14:36:52;;;;;;;9.90;7.07;;;14.50;63.50;;;;;;6302576;28;20456;-62
2022/12/25 14:39:57;;;;;;;7.50;6.30;;;14.30;65.50;;;;;;6303557;28;20537;-63
2022/12/25 14:43:02;;;;;;;6.67;6.03;;;14.00;67.70;;;;;;6303267;28;20814;-63
2022/12/25 14:46:06;;;;;;;7.70;7.00;;;13.70;69.30;;;;;;6302406;28;20468;-63
2022/12/25 14:49:23;;;;;;;7.50;6.10;;;13.60;71.20;;;;;;6302552;28;20476;-63
2022/12/25 14:52:30;;;;;;;7.00;6.30;;;13.40;73.00;;;;;;6302647;28;20470;-64
2022/12/25 14:55:33;;;;;;;13.93;8.07;;;13.30;75.20;;;;;;6302216;28;20475;-63
2022/12/25 14:58:41;;;;;;;9.17;8.20;;;13.10;77.20;;;;;;6302170;28;20520;-63
2022/12/25 15:01:51;;;;;;;10.30;7.00;;;13.00;79.40;;;;;;6302103;28;20992;-63
2022/12/25 15:04:55;;;;;;;7.30;6.57;;;12.80;81.10;;;;;;6301952;28;20500;-63
2022/12/25 15:08:03;;;;;;;7.80;7.10;;;12.70;83.70;;;;;;6301835;28;20484;-62
2022/12/25 15:11:07;;;;;;;7.70;6.13;;;12.50;85.30;;;;;;6301927;28;20480;-63
2022/12/25 15:14:10;;;;;;;15.13;6.87;;;12.40;86.80;;;;;;6301781;28;20477;-63
2022/12/25 15:17:25;;;;;;;8.50;7.63;;;12.30;88.60;;;;;;6301884;28;20887;-62
2022/12/25 15:20:31;;;;;;;8.27;7.47;;;12.20;90.30;;;;;;6302023;28;20457;-63
2022/12/25 15:23:34;;;;;;;7.40;6.67;;;12.00;91.10;;;;;;6301570;28;20465;-62
2022/12/25 15:26:37;;;;;;;10.27;7.93;;;11.90;91.90;;;;;;6301261;28;20465;-63
2022/12/25 15:29:40;;;;;;;10.83;7.87;;;11.70;93.00;;;;;;6301773;28;20488;-62
2022/12/25 15:33:06;;;;;;;8.70;7.40;;;11.60;93.80;;;;;;6301322;28;20544;-63
2022/12/25 15:36:09;;;;;;;9.67;7.20;;;11.50;94.60;;;;;;6301513;28;20469;-63
2022/12/25 15:39:13;;;;;;;10.03;7.77;;;11.40;95.10;;;;;;6301347;28;20480;-63
2022/12/25 15:42:18;;;;;;;9.70;8.47;;;11.30;95.70;;;;;;6301197;28;20496;-63
2022/12/25 15:45:24;;;;;;;17.50;14.60;;;11.20;96.40;;;;;;6301179;28;20473;-63
2022/12/25 15:48:28;;;;;;;18.70;14.10;;;11.00;97.10;;;;;;6301648;28;20956;-63
2022/12/25 15:51:32;;;;;;;13.73;12.30;;;10.90;97.80;;;;;;6301545;28;20473;-63
2022/12/25 15:54:35;;;;;;;12.40;11.10;;;10.80;98.30;;;;;;6292542;28;20952;-62
2022/12/25 15:57:41;;;;;;;11.60;10.40;;;10.70;98.70;;;;;;6314724;28;20457;-63
2022/12/25 16:00:44;;;;;;;10.60;9.60;;;10.50;99.20;;;;;;6313958;28;20441;-63
2022/12/25 16:03:49;;;;;;;11.80;10.70;;;10.50;99.50;;;;;;6303007;28;20456;-63
2022/12/25 16:06:53;;;;;;;11.70;10.60;;;10.40;99.90;;;;;;6301113;28;20602;-63
2022/12/25 16:09:56;;;;;;;15.00;13.40;;;10.30;99.90;;;;;;6300305;28;20441;-63
2022/12/25 16:12:59;;;;;;;12.20;10.90;;;10.20;99.90;;;;;;6300639;28;20544;-63
2022/12/25 16:16:03;;;;;;;15.30;12.37;;;10.20;99.90;;;;;;6301021;28;20475;-62
2022/12/25 16:19:08;;;;;;;19.27;17.37;;;10.10;99.90;;;;;;6300205;28;20920;-64
2022/12/25 16:22:12;;;;;;;17.03;15.27;;;10.00;99.90;;;;;;6300396;28;20491;-62
2022/12/25 16:25:18;;;;;;;21.67;19.50;;;9.90;99.90;;;;;;6300119;28;20949;-63
2022/12/25 16:28:21;;;;;;;16.63;15.03;;;9.90;99.90;;;;;;6300119;28;20968;-63
2022/12/25 16:31:25;;;;;;;16.70;14.60;;;9.80;99.90;;;;;;6300008;28;20472;-63
2022/12/25 16:34:29;;;;;;;16.87;14.87;;;9.70;99.90;;;;;;6299456;28;20593;-62
2022/12/25 16:37:34;;;;;;;14.73;13.23;;;9.60;99.90;;;;;;6299849;28;20805;-63
2022/12/25 16:40:37;;;;;;;22.57;20.17;;;9.60;99.90;;;;;;6299923;28;20469;-63
2022/12/25 16:43:41;;;;;;;18.53;15.20;;;9.50;99.90;;;;;;6299707;28;20741;-63
2022/12/25 16:46:44;;;;;;;14.40;12.90;;;9.40;99.90;;;;;;6299766;28;20473;-63
2022/12/25 16:49:49;;;;;;;18.20;15.87;;;9.30;99.90;;;;;;6300214;28;21014;-63
2022/12/25 16:52:52;;;;;;;15.37;13.87;;;9.20;99.90;;;;;;6300028;28;20481;-63
2022/12/25 16:56:05;;;;;;;13.97;12.60;;;9.10;99.90;;;;;;6290806;28;20469;-64
2022/12/25 16:59:09;;;;;;;15.40;12.80;;;9.00;99.90;;;;;;6299579;28;20491;-63
2022/12/25 17:02:15;;;;;;;16.70;12.87;;;9.00;99.90;;;;;;6300188;28;20465;-63
2022/12/25 17:05:20;;;;;;;14.60;13.10;;;8.90;99.90;;;;;;6299466;28;20560;-63
2022/12/25 17:08:23;;;;;;;17.17;13.87;;;8.90;99.90;;;;;;6299563;28;20468;-64
2022/12/25 17:11:28;;;;;;;15.43;12.30;;;8.80;99.90;;;;;;6299607;28;20960;-63
2022/12/25 17:14:32;;;;;;;18.40;12.60;;;8.80;99.90;;;;;;6299659;28;21038;-63
2022/12/25 17:17:35;;;;;;;16.43;12.70;;;8.70;99.90;;;;;;6299468;28;20483;-63
2022/12/25 17:20:48;;;;;;;17.07;15.37;;;8.70;99.90;;;;;;6299631;28;20473;-63
2022/12/25 17:23:51;;;;;;;15.07;13.53;;;8.60;99.90;;;;;;6299563;28;20469;-63
2022/12/25 17:27:07;;;;;;;14.50;13.00;;;8.50;99.90;;;;;;6299314;28;20481;-64
2022/12/25 17:30:11;;;;;;;13.63;12.30;;;8.50;99.90;;;;;;6299536;28;20484;-62
2022/12/25 17:33:14;;;;;;;13.00;11.70;;;8.40;99.90;;;;;;6299487;28;20545;-62
2022/12/25 17:36:20;;;;;;;14.13;11.47;;;8.30;99.90;;;;;;6298999;28;20484;-63
2022/12/25 17:39:23;;;;;;;14.70;11.70;;;8.30;99.90;;;;;;6299333;28;20476;-63
2022/12/25 17:42:27;;;;;;;15.20;12.83;;;8.20;99.90;;;;;;6299422;28;20838;-63